createdAt,value
2019-05-02T00:04:42.416Z,9.96
2019-05-02T00:09:48.498Z,9.61
2019-05-02T00:14:51.002Z,9.70
2019-05-02T00:19:54.464Z,9.55
2019-05-02T00:24:57.863Z,9.59
2019-05-02T00:30:01.258Z,9.75
2019-05-02T00:35:06.089Z,9.74
2019-05-02T00:40:09.724Z,9.52
2019-05-02T00:45:14.175Z,9.49
2019-05-02T00:50:18.365Z,9.42
2019-05-02T00:55:21.756Z,9.41
2019-05-02T01:00:25.152Z,9.39
2019-05-02T01:05:28.545Z,9.36
2019-05-02T01:10:32.175Z,9.35
2019-05-02T01:15:39.062Z,9.32
2019-05-02T01:20:40.928Z,9.36
2019-05-02T01:25:47.429Z,9.30
2019-05-02T01:31:00.074Z,9.09
2019-05-02T01:36:08.227Z,9.09
2019-05-02T01:41:11.625Z,9.04
2019-05-02T01:46:17.125Z,8.99
2019-05-02T01:51:20.134Z,8.79
2019-05-02T01:56:23.529Z,8.48
2019-05-02T02:01:26.926Z,8.26
2019-05-02T02:06:30.758Z,8.08
2019-05-02T02:11:35.802Z,8.09
2019-05-02T02:16:40.479Z,8.19
2019-05-02T02:21:51.033Z,8.34
2019-05-02T02:26:54.431Z,8.37
2019-05-02T02:31:57.832Z,8.29
2019-05-02T02:37:05.462Z,8.08
2019-05-02T02:42:06.392Z,8.12
2019-05-02T02:47:12.008Z,8.11
2019-05-02T02:52:14.939Z,8.14
2019-05-02T02:57:25.709Z,8.06
2019-05-02T03:02:23.971Z,8.03
2019-05-02T03:07:28.853Z,7.85
2019-05-02T03:12:45.855Z,7.66
2019-05-02T03:17:49.262Z,7.59
2019-05-02T03:22:52.901Z,7.50
2019-05-02T03:27:56.437Z,7.36
2019-05-02T03:33:09.726Z,7.28
2019-05-02T03:38:05.211Z,7.30
2019-05-02T03:43:08.882Z,7.43
2019-05-02T03:48:18.435Z,7.64
2019-05-02T03:53:25.183Z,7.67
2019-05-02T03:58:22.699Z,7.51
2019-05-02T04:03:26.399Z,7.27
2019-05-02T04:08:30.758Z,7.14
2019-05-02T04:13:36.319Z,7.22
2019-05-02T04:18:40.092Z,7.13
2019-05-02T04:23:44.359Z,6.84
2019-05-02T04:28:51.703Z,6.72
2019-05-02T04:33:52.929Z,6.71
2019-05-02T04:38:59.345Z,6.74
2019-05-02T04:44:01.863Z,6.93
2019-05-02T04:49:05.306Z,7.01
2019-05-02T04:54:09.359Z,7.06
2019-05-02T04:59:17.751Z,7.18
2019-05-02T05:04:18.076Z,7.44
2019-05-02T05:09:21.479Z,7.48
2019-05-02T05:14:25.109Z,7.66
2019-05-02T05:19:32.636Z,7.83
2019-05-02T05:24:38.545Z,8.01
2019-05-02T05:29:40.642Z,8.25
2019-05-02T05:34:44.037Z,8.40
2019-05-02T05:39:48.758Z,8.60
2019-05-02T05:44:52.590Z,8.86
2019-05-02T05:49:57.615Z,9.10
2019-05-02T05:55:01.126Z,9.34
2019-05-02T06:00:12.004Z,9.56
2019-05-02T06:05:13.290Z,9.82
2019-05-02T06:10:16.767Z,10.09
2019-05-02T06:15:20.157Z,10.36
2019-05-02T06:20:25.629Z,10.75
2019-05-02T06:25:34.402Z,11.05
2019-05-02T06:30:34.373Z,11.33
2019-05-02T06:35:37.771Z,11.48
2019-05-02T06:40:44.786Z,11.63
2019-05-02T06:45:46.291Z,11.85
2019-05-02T06:50:49.713Z,12.08
2019-05-02T06:55:53.177Z,12.19
2019-05-02T07:00:58.928Z,12.32
2019-05-02T07:06:02.673Z,12.51
2019-05-02T07:11:07.315Z,12.69
2019-05-02T07:16:37.532Z,12.77
2019-05-02T07:21:29.118Z,12.97
2019-05-02T07:26:32.516Z,13.22
2019-05-02T07:31:35.916Z,13.42
2019-05-02T07:36:39.338Z,13.62
2019-05-02T07:41:42.734Z,13.76
2019-05-02T07:46:51.955Z,13.94
2019-05-02T07:51:52.257Z,14.21
2019-05-02T07:56:56.406Z,14.42
2019-05-02T08:01:59.820Z,14.51
2019-05-02T08:07:03.218Z,14.74
2019-05-02T08:12:06.951Z,14.88
2019-05-02T08:17:16.340Z,15.04
2019-05-02T08:22:15.571Z,15.41
2019-05-02T08:27:23.503Z,15.41
2019-05-02T08:32:26.903Z,15.69
2019-05-02T08:37:30.306Z,15.86
2019-05-02T08:42:33.850Z,16.11
2019-05-02T08:47:37.198Z,16.29
2019-05-02T08:52:42.104Z,16.52
2019-05-02T08:57:45.950Z,16.79
2019-05-02T09:02:49.355Z,16.98
2019-05-02T09:07:52.754Z,17.25
2019-05-02T09:12:56.168Z,17.42
2019-05-02T09:17:59.587Z,17.69
2019-05-02T09:23:03.079Z,17.99
2019-05-02T09:28:06.478Z,18.27
2019-05-02T09:33:11.696Z,18.36
2019-05-02T09:38:16.374Z,18.51
2019-05-02T09:43:19.806Z,18.62
2019-05-02T09:48:26.814Z,18.76
2019-05-02T09:53:28.386Z,18.92
2019-05-02T09:58:32.157Z,19.03
2019-05-02T10:03:35.553Z,19.02
2019-05-02T10:08:43.420Z,19.10
2019-05-02T10:13:44.385Z,19.40
2019-05-02T10:18:48.039Z,19.61
2019-05-02T10:23:58.952Z,19.80
2019-05-02T10:28:56.618Z,19.94
2019-05-02T10:34:02.229Z,19.78
2019-05-02T10:39:07.219Z,19.86
2019-05-02T10:44:12.744Z,20.10
2019-05-02T10:49:17.365Z,20.36
2019-05-02T10:54:23.025Z,20.06
2019-05-02T10:59:26.045Z,19.88
2019-05-02T11:04:32.339Z,20.18
2019-05-02T11:09:35.348Z,20.33
2019-05-02T11:14:46.171Z,20.62
2019-05-02T11:20:01.889Z,20.74
2019-05-02T11:25:07.198Z,20.93
2019-05-02T11:30:12.241Z,21.23
2019-05-02T11:35:15.967Z,21.08
2019-05-02T11:40:19.628Z,20.95
2019-05-02T11:45:23.049Z,21.15
2019-05-02T11:50:26.619Z,21.38
2019-05-02T11:55:31.963Z,21.43
2019-05-02T12:00:35.462Z,21.01
2019-05-02T12:05:42.355Z,20.91
2019-05-02T12:10:45.917Z,20.65
2019-05-02T12:15:51.774Z,20.13
2019-05-02T12:20:54.717Z,19.60
2019-05-02T12:25:58.134Z,19.46
2019-05-02T12:31:02.703Z,19.40
2019-05-02T12:36:08.352Z,19.23
2019-05-02T12:41:20.296Z,19.10
2019-05-02T12:46:16.886Z,19.61
2019-05-02T12:51:22.366Z,19.96
2019-05-02T12:56:25.949Z,20.29
2019-05-02T13:01:29.361Z,20.65
2019-05-02T13:06:33.031Z,20.72
2019-05-02T13:11:52.164Z,20.61
2019-05-02T13:17:01.295Z,20.52
2019-05-02T13:22:02.339Z,20.66
2019-05-02T13:27:08.282Z,21.24
2019-05-02T13:32:18.567Z,21.46
2019-05-02T13:37:22.435Z,21.74
2019-05-02T13:42:25.884Z,21.38
2019-05-02T13:47:29.282Z,21.41
2019-05-02T13:52:33.287Z,21.84
2019-05-02T13:57:43.126Z,22.22
2019-05-02T14:02:43.280Z,21.56
2019-05-02T14:07:53.148Z,21.73
2019-05-02T14:13:03.046Z,22.07
2019-05-02T14:18:06.001Z,21.61
2019-05-02T14:23:09.417Z,20.97
2019-05-02T14:28:13.054Z,20.81
2019-05-02T14:33:18.041Z,20.71
2019-05-02T14:38:22.075Z,20.80
2019-05-02T14:43:46.182Z,20.98
2019-05-02T14:48:48.532Z,21.15
2019-05-02T14:53:52.760Z,21.43
2019-05-02T14:58:57.179Z,21.46
2019-05-02T15:04:06.484Z,21.56
2019-05-02T15:09:08.156Z,21.50
2019-05-02T15:14:18.388Z,21.51
2019-05-02T15:19:16.688Z,21.59
2019-05-02T15:24:20.106Z,21.46
2019-05-02T15:29:27.135Z,21.34
2019-05-02T15:34:35.510Z,21.24
2019-05-02T15:44:43.435Z,20.99
2019-05-02T15:49:46.830Z,20.89
2019-05-02T15:54:55.498Z,20.99
2019-05-02T15:59:55.673Z,20.85
2019-05-02T16:05:02.345Z,20.71
2019-05-02T16:10:06.243Z,20.63
2019-05-02T16:15:19.594Z,20.79
2019-05-02T16:20:17.156Z,20.94
2019-05-02T16:25:24.493Z,20.63
2019-05-02T16:30:26.088Z,20.44
2019-05-02T16:35:31.148Z,20.37
2019-05-02T16:40:35.012Z,20.22
2019-05-02T16:45:38.381Z,20.18
2019-05-02T16:50:43.535Z,20.09
2019-05-02T16:55:46.895Z,20.03
2019-05-02T17:00:50.295Z,20.08
2019-05-02T17:05:54.436Z,19.95
2019-05-02T17:10:59.617Z,19.90
2019-05-02T17:16:06.889Z,19.74
2019-05-02T17:21:08.366Z,19.53
2019-05-02T17:26:12.267Z,19.39
2019-05-02T17:31:19.620Z,19.39
2019-05-02T17:36:28.050Z,19.24
2019-05-02T17:41:25.955Z,19.18
2019-05-02T17:46:29.417Z,19.07
2019-05-02T17:51:37.867Z,19.00
2019-05-02T17:56:42.069Z,18.93
2019-05-02T18:01:45.494Z,18.86
2019-05-02T18:06:53.654Z,18.82
2019-05-02T18:11:54.251Z,18.69
2019-05-02T18:16:57.637Z,17.83
2019-05-02T18:22:03.636Z,16.59
2019-05-02T18:27:06.317Z,15.55
2019-05-02T18:32:09.735Z,15.14
2019-05-02T18:37:13.148Z,14.91
2019-05-02T18:42:21.089Z,14.93
2019-05-02T18:47:24.628Z,14.61
2019-05-02T18:52:36.356Z,14.54
2019-05-02T18:57:32.005Z,14.57
2019-05-02T19:02:35.763Z,14.57
2019-05-02T19:07:39.093Z,14.63
2019-05-02T19:12:42.588Z,14.38
2019-05-02T19:17:46.063Z,14.04
2019-05-02T19:22:54.790Z,13.88
2019-05-02T19:27:59.360Z,13.77
2019-05-02T19:33:07.642Z,13.77
2019-05-02T19:38:07.873Z,13.79
2019-05-02T19:43:14.570Z,13.75
2019-05-02T19:48:16.645Z,13.75
2019-05-02T19:53:20.048Z,13.78
2019-05-02T19:58:23.444Z,13.84
2019-05-02T20:03:26.842Z,13.85
2019-05-02T20:08:32.368Z,13.77
2019-05-02T20:13:35.451Z,13.73
2019-05-02T20:18:43.965Z,13.68
2019-05-02T20:23:44.266Z,13.59
2019-05-02T20:28:47.688Z,13.56
2019-05-02T20:33:52.030Z,13.48
2019-05-02T20:38:55.463Z,13.49
2019-05-02T20:43:58.859Z,13.48
2019-05-02T20:49:02.697Z,13.43
2019-05-02T20:54:06.094Z,13.44
2019-05-02T20:59:09.584Z,13.53
2019-05-02T21:04:12.984Z,13.56
2019-05-02T21:09:18.047Z,13.59
2019-05-02T21:14:21.713Z,13.56
2019-05-02T21:19:25.120Z,13.66
2019-05-02T21:24:28.520Z,13.49
2019-05-02T21:29:32.223Z,13.44
2019-05-02T21:34:35.831Z,13.40
2019-05-02T21:39:39.230Z,13.25
2019-05-02T21:44:42.661Z,13.21
2019-05-02T21:49:52.480Z,13.16
2019-05-02T21:55:03.015Z,13.12
2019-05-02T22:00:12.457Z,13.14
2019-05-02T22:05:16.100Z,13.01
2019-05-02T22:10:19.492Z,13.09
2019-05-02T22:15:23.156Z,13.05
2019-05-02T22:20:26.580Z,13.03
2019-05-02T22:25:32.645Z,13.05
2019-05-02T22:30:36.423Z,13.05
2019-05-02T22:35:43.174Z,13.13
2019-05-02T22:40:46.579Z,13.16
2019-05-02T22:45:49.999Z,13.24
2019-05-02T22:50:53.399Z,13.21
2019-05-02T22:55:56.798Z,13.30
2019-05-02T23:01:01.656Z,13.26
2019-05-02T23:06:05.074Z,13.21
2019-05-02T23:11:08.494Z,13.17
2019-05-02T23:16:11.989Z,13.11
2019-05-02T23:21:15.403Z,13.09
2019-05-02T23:26:22.315Z,13.08
2019-05-02T23:31:25.836Z,13.07
2019-05-02T23:36:32.259Z,13.05
2019-05-02T23:41:35.723Z,13.13
2019-05-02T23:46:39.123Z,13.03
2019-05-02T23:51:42.887Z,12.95
2019-05-02T23:56:46.332Z,12.92
